sensor_id;sensor_type;location;lat;lon;timestamp;pressure;altitude;pressure_sealevel;temperature;humidity
63006;BME280;53704;52.532;6.426;2023-05-22T00:00:34;101491.66;;;17.25;100.00
63006;BME280;53704;52.532;6.426;2023-05-22T00:03:00;101486.97;;;17.19;100.00
63006;BME280;53704;52.532;6.426;2023-05-22T00:05:28;101471.47;;;17.20;100.00
63006;BME280;53704;52.532;6.426;2023-05-22T00:07:54;101478.75;;;17.34;100.00
63006;BME280;53704;52.532;6.426;2023-05-22T00:10:20;101469.34;;;17.58;100.00
63006;BME280;53704;52.532;6.426;2023-05-22T00:12:45;101460.22;;;17.87;100.00
63006;BME280;53704;52.532;6.426;2023-05-22T00:15:11;101466.63;;;17.80;100.00
63006;BME280;53704;52.532;6.426;2023-05-22T00:17:36;101456.78;;;18.00;100.00
63006;BME280;53704;52.532;6.426;2023-05-22T00:20:03;101454.06;;;18.00;100.00
63006;BME280;53704;52.532;6.426;2023-05-22T00:22:31;101459.50;;;18.00;100.00
63006;BME280;53704;52.532;6.426;2023-05-22T00:25:00;101449.38;;;17.72;100.00
63006;BME280;53704;52.532;6.426;2023-05-22T00:27:26;101445.22;;;17.77;100.00
63006;BME280;53704;52.532;6.426;2023-05-22T00:29:52;101451.69;;;17.47;100.00
63006;BME280;53704;52.532;6.426;2023-05-22T00:32:17;101454.41;;;17.11;100.00
63006;BME280;53704;52.532;6.426;2023-05-22T00:34:45;101463.84;;;16.93;100.00
63006;BME280;53704;52.532;6.426;2023-05-22T00:37:10;101454.94;;;16.85;100.00
63006;BME280;53704;52.532;6.426;2023-05-22T00:39:36;101450.25;;;16.93;100.00
63006;BME280;53704;52.532;6.426;2023-05-22T00:42:01;101459.09;;;17.17;100.00
63006;BME280;53704;52.532;6.426;2023-05-22T00:44:28;101474.63;;;16.87;100.00
63006;BME280;53704;52.532;6.426;2023-05-22T00:46:53;101462.72;;;16.73;100.00
63006;BME280;53704;52.532;6.426;2023-05-22T00:49:19;101461.41;;;16.98;100.00
63006;BME280;53704;52.532;6.426;2023-05-22T00:51:44;101460.00;;;16.73;100.00
63006;BME280;53704;52.532;6.426;2023-05-22T00:54:11;101457.81;;;16.98;100.00
63006;BME280;53704;52.532;6.426;2023-05-22T00:56:37;101460.53;;;17.13;100.00
63006;BME280;53704;52.532;6.426;2023-05-22T00:59:03;101459.47;;;17.14;100.00
63006;BME280;53704;52.532;6.426;2023-05-22T01:01:28;101457.03;;;17.19;100.00
63006;BME280;53704;52.532;6.426;2023-05-22T01:03:58;101453.06;;;17.00;100.00
63006;BME280;53704;52.532;6.426;2023-05-22T01:06:26;101449.22;;;16.94;100.00
63006;BME280;53704;52.532;6.426;2023-05-22T01:08:52;101457.75;;;16.76;100.00
63006;BME280;53704;52.532;6.426;2023-05-22T01:11:42;101458.38;;;17.08;100.00
63006;BME280;53704;52.532;6.426;2023-05-22T01:17:18;101466.03;;;17.20;100.00
63006;BME280;53704;52.532;6.426;2023-05-22T01:20:09;101467.16;;;17.25;100.00
63006;BME280;53704;52.532;6.426;2023-05-22T01:22:46;101456.66;;;17.22;100.00
63006;BME280;53704;52.532;6.426;2023-05-22T01:33:13;101437.41;;;16.72;100.00
63006;BME280;53704;52.532;6.426;2023-05-22T01:35:46;101433.69;;;16.43;100.00
63006;BME280;53704;52.532;6.426;2023-05-22T01:38:14;101435.81;;;16.78;100.00
63006;BME280;53704;52.532;6.426;2023-05-22T01:40:40;101428.47;;;17.08;100.00
63006;BME280;53704;52.532;6.426;2023-05-22T01:43:07;101424.75;;;16.94;100.00
63006;BME280;53704;52.532;6.426;2023-05-22T01:45:32;101415.38;;;16.97;100.00
63006;BME280;53704;52.532;6.426;2023-05-22T01:47:59;101416.56;;;16.94;100.00
63006;BME280;53704;52.532;6.426;2023-05-22T01:50:24;101414.09;;;17.14;100.00
63006;BME280;53704;52.532;6.426;2023-05-22T01:53:14;101418.25;;;17.32;100.00
63006;BME280;53704;52.532;6.426;2023-05-22T01:59:03;101412.06;;;17.23;100.00
63006;BME280;53704;52.532;6.426;2023-05-22T02:01:35;101405.56;;;17.03;100.00
63006;BME280;53704;52.532;6.426;2023-05-22T02:04:03;101409.88;;;16.60;100.00
63006;BME280;53704;52.532;6.426;2023-05-22T02:06:31;101413.59;;;16.74;100.00
63006;BME280;53704;52.532;6.426;2023-05-22T02:08:58;101410.28;;;16.79;100.00
63006;BME280;53704;52.532;6.426;2023-05-22T02:11:26;101414.13;;;16.85;100.00
63006;BME280;53704;52.532;6.426;2023-05-22T02:13:53;101408.97;;;17.05;100.00
63006;BME280;53704;52.532;6.426;2023-05-22T02:16:19;101408.56;;;17.08;100.00
63006;BME280;53704;52.532;6.426;2023-05-22T02:18:46;101406.00;;;16.70;100.00
63006;BME280;53704;52.532;6.426;2023-05-22T02:21:12;101398.81;;;16.62;100.00
63006;BME280;53704;52.532;6.426;2023-05-22T02:23:38;101390.56;;;17.07;100.00
63006;BME280;53704;52.532;6.426;2023-05-22T02:26:03;101400.16;;;17.24;100.00
63006;BME280;53704;52.532;6.426;2023-05-22T02:28:29;101392.69;;;17.33;100.00
63006;BME280;53704;52.532;6.426;2023-05-22T02:30:55;101398.59;;;17.36;100.00
63006;BME280;53704;52.532;6.426;2023-05-22T02:33:20;101396.78;;;17.00;100.00
63006;BME280;53704;52.532;6.426;2023-05-22T02:35:46;101391.47;;;17.14;100.00
63006;BME280;53704;52.532;6.426;2023-05-22T02:38:11;101391.47;;;17.14;100.00
63006;BME280;53704;52.532;6.426;2023-05-22T02:40:37;101396.53;;;16.95;100.00
63006;BME280;53704;52.532;6.426;2023-05-22T02:43:02;101409.06;;;16.81;100.00
63006;BME280;53704;52.532;6.426;2023-05-22T02:45:28;101407.94;;;16.76;100.00
63006;BME280;53704;52.532;6.426;2023-05-22T02:47:53;101410.03;;;16.74;100.00
63006;BME280;53704;52.532;6.426;2023-05-22T02:50:19;101408.34;;;16.88;100.00
63006;BME280;53704;52.532;6.426;2023-05-22T02:52:45;101404.53;;;16.67;100.00
63006;BME280;53704;52.532;6.426;2023-05-22T02:55:10;101400.59;;;16.55;100.00
63006;BME280;53704;52.532;6.426;2023-05-22T02:57:36;101407.25;;;16.37;100.00
63006;BME280;53704;52.532;6.426;2023-05-22T03:00:03;101408.09;;;16.38;100.00
63006;BME280;53704;52.532;6.426;2023-05-22T03:02:31;101403.22;;;16.33;100.00
63006;BME280;53704;52.532;6.426;2023-05-22T03:04:56;101411.28;;;16.56;100.00
63006;BME280;53704;52.532;6.426;2023-05-22T03:07:23;101406.13;;;16.46;100.00
63006;BME280;53704;52.532;6.426;2023-05-22T03:09:51;101398.72;;;16.25;100.00
63006;BME280;53704;52.532;6.426;2023-05-22T03:12:16;101402.97;;;16.13;100.00
63006;BME280;53704;52.532;6.426;2023-05-22T03:14:42;101401.25;;;16.42;100.00
63006;BME280;53704;52.532;6.426;2023-05-22T03:17:08;101400.63;;;16.40;100.00
63006;BME280;53704;52.532;6.426;2023-05-22T03:19:34;101397.13;;;16.61;100.00
63006;BME280;53704;52.532;6.426;2023-05-22T03:21:59;101394.75;;;16.73;100.00
63006;BME280;53704;52.532;6.426;2023-05-22T03:24:25;101400.75;;;16.68;100.00
63006;BME280;53704;52.532;6.426;2023-05-22T03:26:51;101397.34;;;16.96;100.00
63006;BME280;53704;52.532;6.426;2023-05-22T03:29:16;101398.81;;;16.47;100.00
63006;BME280;53704;52.532;6.426;2023-05-22T03:31:42;101395.69;;;16.65;100.00
63006;BME280;53704;52.532;6.426;2023-05-22T03:34:10;101405.53;;;16.81;100.00
63006;BME280;53704;52.532;6.426;2023-05-22T03:36:35;101392.75;;;16.45;100.00
63006;BME280;53704;52.532;6.426;2023-05-22T03:39:02;101388.09;;;16.75;100.00
63006;BME280;53704;52.532;6.426;2023-05-22T03:41:27;101391.50;;;16.48;100.00
63006;BME280;53704;52.532;6.426;2023-05-22T03:43:53;101379.59;;;16.63;100.00
63006;BME280;53704;52.532;6.426;2023-05-22T03:46:18;101387.78;;;16.34;100.00
63006;BME280;53704;52.532;6.426;2023-05-22T03:48:44;101387.06;;;16.61;100.00
63006;BME280;53704;52.532;6.426;2023-05-22T03:51:09;101376.84;;;16.78;100.00
63006;BME280;53704;52.532;6.426;2023-05-22T03:53:35;101378.91;;;16.76;100.00
63006;BME280;53704;52.532;6.426;2023-05-22T03:56:00;101379.63;;;17.00;100.00
63006;BME280;53704;52.532;6.426;2023-05-22T03:58:26;101371.19;;;16.95;100.00
63006;BME280;53704;52.532;6.426;2023-05-22T04:00:53;101379.91;;;16.90;100.00
63006;BME280;53704;52.532;6.426;2023-05-22T04:03:19;101368.59;;;16.87;100.00
63006;BME280;53704;52.532;6.426;2023-05-22T04:05:45;101373.75;;;16.67;100.00
63006;BME280;53704;52.532;6.426;2023-05-22T04:08:11;101366.72;;;16.72;100.00
63006;BME280;53704;52.532;6.426;2023-05-22T04:10:36;101374.63;;;16.67;100.00
63006;BME280;53704;52.532;6.426;2023-05-22T04:13:03;101378.97;;;16.83;100.00
63006;BME280;53704;52.532;6.426;2023-05-22T04:15:29;101368.47;;;16.95;100.00
63006;BME280;53704;52.532;6.426;2023-05-22T04:17:58;101374.56;;;16.82;100.00
63006;BME280;53704;52.532;6.426;2023-05-22T04:20:24;101375.41;;;16.97;100.00
63006;BME280;53704;52.532;6.426;2023-05-22T04:22:49;101382.84;;;16.74;100.00
63006;BME280;53704;52.532;6.426;2023-05-22T04:25:15;101394.28;;;16.69;100.00
63006;BME280;53704;52.532;6.426;2023-05-22T04:27:41;101390.78;;;16.90;100.00
63006;BME280;53704;52.532;6.426;2023-05-22T04:30:07;101380.91;;;17.04;100.00
63006;BME280;53704;52.532;6.426;2023-05-22T04:32:33;101378.78;;;16.85;100.00
63006;BME280;53704;52.532;6.426;2023-05-22T04:35:00;101388.91;;;16.76;100.00
63006;BME280;53704;52.532;6.426;2023-05-22T04:37:26;101385.94;;;16.71;100.00
63006;BME280;53704;52.532;6.426;2023-05-22T04:39:53;101381.06;;;16.81;100.00
63006;BME280;53704;52.532;6.426;2023-05-22T04:42:22;101383.53;;;16.61;100.00
63006;BME280;53704;52.532;6.426;2023-05-22T04:44:50;101381.31;;;16.50;100.00
63006;BME280;53704;52.532;6.426;2023-05-22T04:47:17;101385.16;;;16.40;100.00
63006;BME280;53704;52.532;6.426;2023-05-22T04:49:44;101386.06;;;16.48;100.00
63006;BME280;53704;52.532;6.426;2023-05-22T04:52:10;101388.03;;;16.54;100.00
63006;BME280;53704;52.532;6.426;2023-05-22T04:54:36;101385.59;;;16.44;100.00
63006;BME280;53704;52.532;6.426;2023-05-22T04:57:03;101384.03;;;16.50;100.00
63006;BME280;53704;52.532;6.426;2023-05-22T04:59:30;101389.44;;;16.50;100.00
63006;BME280;53704;52.532;6.426;2023-05-22T05:01:57;101391.00;;;16.74;100.00
63006;BME280;53704;52.532;6.426;2023-05-22T05:04:23;101389.84;;;16.98;100.00
63006;BME280;53704;52.532;6.426;2023-05-22T05:06:48;101392.03;;;16.88;100.00
63006;BME280;53704;52.532;6.426;2023-05-22T05:09:14;101392.91;;;16.58;100.00
63006;BME280;53704;52.532;6.426;2023-05-22T05:11:39;101389.66;;;16.85;100.00
63006;BME280;53704;52.532;6.426;2023-05-22T05:14:05;101389.84;;;16.83;100.00
63006;BME280;53704;52.532;6.426;2023-05-22T05:16:30;101391.13;;;16.66;100.00
63006;BME280;53704;52.532;6.426;2023-05-22T05:18:56;101390.34;;;16.72;100.00
63006;BME280;53704;52.532;6.426;2023-05-22T05:21:21;101396.28;;;16.60;100.00
63006;BME280;53704;52.532;6.426;2023-05-22T05:23:47;101397.47;;;16.73;100.00
63006;BME280;53704;52.532;6.426;2023-05-22T05:26:13;101397.56;;;16.64;100.00
63006;BME280;53704;52.532;6.426;2023-05-22T05:28:38;101390.88;;;16.97;100.00
63006;BME280;53704;52.532;6.426;2023-05-22T05:31:04;101398.38;;;16.95;100.00
63006;BME280;53704;52.532;6.426;2023-05-22T05:33:31;101397.53;;;16.94;100.00
63006;BME280;53704;52.532;6.426;2023-05-22T05:35:57;101401.97;;;17.17;100.00
63006;BME280;53704;52.532;6.426;2023-05-22T05:38:22;101398.09;;;17.05;100.00
63006;BME280;53704;52.532;6.426;2023-05-22T05:40:48;101407.00;;;16.98;100.00
63006;BME280;53704;52.532;6.426;2023-05-22T05:43:13;101409.47;;;17.15;100.00
63006;BME280;53704;52.532;6.426;2023-05-22T05:45:40;101411.38;;;17.14;100.00
63006;BME280;53704;52.532;6.426;2023-05-22T05:48:06;101410.69;;;16.91;100.00
63006;BME280;53704;52.532;6.426;2023-05-22T05:50:31;101405.44;;;17.11;100.00
63006;BME280;53704;52.532;6.426;2023-05-22T05:52:57;101408.50;;;17.01;100.00
63006;BME280;53704;52.532;6.426;2023-05-22T05:55:23;101421.78;;;16.59;100.00
63006;BME280;53704;52.532;6.426;2023-05-22T05:57:48;101411.16;;;16.64;100.00
63006;BME280;53704;52.532;6.426;2023-05-22T06:00:14;101414.34;;;16.68;100.00
63006;BME280;53704;52.532;6.426;2023-05-22T06:02:40;101412.28;;;16.55;100.00
63006;BME280;53704;52.532;6.426;2023-05-22T06:05:06;101409.19;;;16.58;100.00
63006;BME280;53704;52.532;6.426;2023-05-22T06:07:34;101416.72;;;16.56;100.00
63006;BME280;53704;52.532;6.426;2023-05-22T06:10:03;101417.47;;;16.50;100.00
63006;BME280;53704;52.532;6.426;2023-05-22T06:12:29;101411.09;;;16.58;100.00
63006;BME280;53704;52.532;6.426;2023-05-22T06:14:55;101414.94;;;16.49;100.00
63006;BME280;53704;52.532;6.426;2023-05-22T06:17:21;101418.47;;;16.49;100.00
63006;BME280;53704;52.532;6.426;2023-05-22T06:19:46;101422.03;;;16.64;100.00
63006;BME280;53704;52.532;6.426;2023-05-22T06:22:12;101418.50;;;16.64;100.00
63006;BME280;53704;52.532;6.426;2023-05-22T06:24:37;101421.56;;;16.76;100.00
63006;BME280;53704;52.532;6.426;2023-05-22T06:27:03;101426.16;;;16.75;100.00
63006;BME280;53704;52.532;6.426;2023-05-22T06:29:29;101430.75;;;16.60;100.00
63006;BME280;53704;52.532;6.426;2023-05-22T06:31:55;101424.56;;;16.66;100.00
63006;BME280;53704;52.532;6.426;2023-05-22T06:34:21;101423.50;;;16.82;100.00
63006;BME280;53704;52.532;6.426;2023-05-22T06:36:47;101433.72;;;16.95;100.00
63006;BME280;53704;52.532;6.426;2023-05-22T06:39:15;101437.97;;;16.82;100.00
63006;BME280;53704;52.532;6.426;2023-05-22T06:41:41;101442.53;;;16.82;100.00
63006;BME280;53704;52.532;6.426;2023-05-22T06:44:06;101449.22;;;16.94;100.00
63006;BME280;53704;52.532;6.426;2023-05-22T06:46:32;101448.72;;;17.06;100.00
63006;BME280;53704;52.532;6.426;2023-05-22T06:48:57;101444.34;;;16.90;100.00
63006;BME280;53704;52.532;6.426;2023-05-22T06:51:22;101461.97;;;16.94;100.00
63006;BME280;53704;52.532;6.426;2023-05-22T06:53:50;101467.31;;;16.87;100.00
63006;BME280;53704;52.532;6.426;2023-05-22T06:56:17;101459.34;;;16.86;100.00
63006;BME280;53704;52.532;6.426;2023-05-22T06:58:43;101470.22;;;16.86;100.00
63006;BME280;53704;52.532;6.426;2023-05-22T07:01:09;101467.13;;;16.89;100.00
63006;BME280;53704;52.532;6.426;2023-05-22T07:03:34;101467.88;;;16.82;100.00
63006;BME280;53704;52.532;6.426;2023-05-22T07:06:00;101464.13;;;16.98;100.00
63006;BME280;53704;52.532;6.426;2023-05-22T07:08:26;101473.25;;;16.91;100.00
63006;BME280;53704;52.532;6.426;2023-05-22T07:10:52;101474.34;;;16.96;100.00
63006;BME280;53704;52.532;6.426;2023-05-22T07:13:17;101469.94;;;16.95;100.00
63006;BME280;53704;52.532;6.426;2023-05-22T07:15:43;101477.22;;;17.10;100.00
63006;BME280;53704;52.532;6.426;2023-05-22T07:18:08;101481.34;;;17.06;100.00
63006;BME280;53704;52.532;6.426;2023-05-22T07:20:35;101485.59;;;16.93;100.00
63006;BME280;53704;52.532;6.426;2023-05-22T07:23:01;101481.66;;;16.96;100.00
63006;BME280;53704;52.532;6.426;2023-05-22T07:25:27;101478.91;;;17.11;100.00
63006;BME280;53704;52.532;6.426;2023-05-22T07:27:53;101485.03;;;16.98;100.00
63006;BME280;53704;52.532;6.426;2023-05-22T07:30:19;101490.09;;;17.01;100.00
63006;BME280;53704;52.532;6.426;2023-05-22T07:32:45;101481.72;;;17.03;100.00
63006;BME280;53704;52.532;6.426;2023-05-22T07:35:11;101483.69;;;17.09;100.00
63006;BME280;53704;52.532;6.426;2023-05-22T07:37:36;101479.25;;;17.23;100.00
63006;BME280;53704;52.532;6.426;2023-05-22T07:40:05;101471.50;;;17.41;100.00
63006;BME280;53704;52.532;6.426;2023-05-22T07:42:32;101473.88;;;17.29;100.00
63006;BME280;53704;52.532;6.426;2023-05-22T07:44:58;101480.78;;;17.68;100.00
63006;BME280;53704;52.532;6.426;2023-05-22T07:47:24;101472.84;;;17.73;100.00
63006;BME280;53704;52.532;6.426;2023-05-22T07:49:50;101480.38;;;17.71;100.00
63006;BME280;53704;52.532;6.426;2023-05-22T07:52:15;101486.88;;;17.92;100.00
63006;BME280;53704;52.532;6.426;2023-05-22T07:54:41;101491.03;;;17.88;100.00
63006;BME280;53704;52.532;6.426;2023-05-22T07:57:06;101488.03;;;17.83;100.00
63006;BME280;53704;52.532;6.426;2023-05-22T07:59:32;101487.28;;;17.89;100.00
63006;BME280;53704;52.532;6.426;2023-05-22T08:01:58;101486.59;;;18.08;100.00
63006;BME280;53704;52.532;6.426;2023-05-22T08:04:24;101484.66;;;18.31;100.00
63006;BME280;53704;52.532;6.426;2023-05-22T08:06:52;101475.59;;;18.23;100.00
63006;BME280;53704;52.532;6.426;2023-05-22T08:09:21;101478.56;;;18.29;100.00
63006;BME280;53704;52.532;6.426;2023-05-22T08:11:46;101496.31;;;18.18;100.00
63006;BME280;53704;52.532;6.426;2023-05-22T08:14:12;101481.66;;;18.19;100.00
63006;BME280;53704;52.532;6.426;2023-05-22T08:16:37;101489.66;;;18.27;100.00
63006;BME280;53704;52.532;6.426;2023-05-22T08:19:04;101484.41;;;18.25;100.00
63006;BME280;53704;52.532;6.426;2023-05-22T08:21:31;101489.00;;;18.53;100.00
63006;BME280;53704;52.532;6.426;2023-05-22T08:24:02;101477.88;;;18.55;100.00
63006;BME280;53704;52.532;6.426;2023-05-22T08:26:28;101479.78;;;18.54;100.00
63006;BME280;53704;52.532;6.426;2023-05-22T08:28:53;101477.06;;;18.61;100.00
63006;BME280;53704;52.532;6.426;2023-05-22T08:31:19;101483.28;;;18.83;100.00
63006;BME280;53704;52.532;6.426;2023-05-22T08:33:44;101480.38;;;18.85;100.00
63006;BME280;53704;52.532;6.426;2023-05-22T08:36:10;101476.53;;;18.72;100.00
63006;BME280;53704;52.532;6.426;2023-05-22T08:38:35;101477.59;;;18.78;100.00
63006;BME280;53704;52.532;6.426;2023-05-22T08:41:01;101482.41;;;18.76;100.00
63006;BME280;53704;52.532;6.426;2023-05-22T08:43:27;101482.53;;;18.96;100.00
63006;BME280;53704;52.532;6.426;2023-05-22T08:46:02;101473.31;;;19.04;100.00
63006;BME280;53704;52.532;6.426;2023-05-22T08:48:29;101478.66;;;19.25;100.00
63006;BME280;53704;52.532;6.426;2023-05-22T08:50:57;101488.94;;;19.16;100.00
63006;BME280;53704;52.532;6.426;2023-05-22T08:53:27;101486.81;;;19.19;100.00
63006;BME280;53704;52.532;6.426;2023-05-22T08:55:53;101471.75;;;19.29;100.00
63006;BME280;53704;52.532;6.426;2023-05-22T08:58:20;101474.91;;;19.40;100.00
63006;BME280;53704;52.532;6.426;2023-05-22T09:00:46;101478.91;;;19.50;100.00
63006;BME280;53704;52.532;6.426;2023-05-22T09:03:12;101477.22;;;19.49;100.00
63006;BME280;53704;52.532;6.426;2023-05-22T09:05:39;101469.69;;;19.58;100.00
63006;BME280;53704;52.532;6.426;2023-05-22T09:08:08;101467.59;;;19.74;100.00
63006;BME280;53704;52.532;6.426;2023-05-22T09:10:34;101459.41;;;20.14;100.00
63006;BME280;53704;52.532;6.426;2023-05-22T09:13:03;101456.25;;;20.37;100.00
63006;BME280;53704;52.532;6.426;2023-05-22T09:15:32;101449.00;;;20.69;100.00
63006;BME280;53704;52.532;6.426;2023-05-22T09:17:59;101456.56;;;20.74;100.00
63006;BME280;53704;52.532;6.426;2023-05-22T09:20:25;101447.31;;;20.61;100.00
63006;BME280;53704;52.532;6.426;2023-05-22T09:22:51;101450.47;;;20.58;100.00
63006;BME280;53704;52.532;6.426;2023-05-22T09:25:17;101454.94;;;20.53;100.00
63006;BME280;53704;52.532;6.426;2023-05-22T09:27:47;101437.16;;;20.82;100.00
63006;BME280;53704;52.532;6.426;2023-05-22T09:30:16;101442.16;;;20.92;100.00
63006;BME280;53704;52.532;6.426;2023-05-22T09:32:52;101438.47;;;21.18;100.00
63006;BME280;53704;52.532;6.426;2023-05-22T09:35:19;101430.78;;;21.02;100.00
63006;BME280;53704;52.532;6.426;2023-05-22T09:37:45;101439.00;;;21.33;100.00
63006;BME280;53704;52.532;6.426;2023-05-22T09:40:13;101442.28;;;21.10;100.00
63006;BME280;53704;52.532;6.426;2023-05-22T09:42:42;101438.72;;;21.48;100.00
63006;BME280;53704;52.532;6.426;2023-05-22T09:45:09;101439.94;;;21.14;100.00
63006;BME280;53704;52.532;6.426;2023-05-22T09:47:34;101445.91;;;21.43;100.00
63006;BME280;53704;52.532;6.426;2023-05-22T09:50:02;101438.19;;;21.65;100.00
63006;BME280;53704;52.532;6.426;2023-05-22T09:52:35;101441.53;;;21.92;100.00
63006;BME280;53704;52.532;6.426;2023-05-22T09:55:02;101435.81;;;22.19;100.00
63006;BME280;53704;52.532;6.426;2023-05-22T09:57:30;101437.63;;;22.25;100.00
63006;BME280;53704;52.532;6.426;2023-05-22T09:59:58;101439.63;;;21.93;100.00
63006;BME280;53704;52.532;6.426;2023-05-22T10:02:26;101434.63;;;22.52;100.00
63006;BME280;53704;52.532;6.426;2023-05-22T10:04:52;101439.41;;;22.56;100.00
63006;BME280;53704;52.532;6.426;2023-05-22T10:07:23;101426.88;;;22.05;100.00
63006;BME280;53704;52.532;6.426;2023-05-22T10:10:10;101432.53;;;22.29;100.00
63006;BME280;53704;52.532;6.426;2023-05-22T10:12:46;101428.53;;;22.99;100.00
63006;BME280;53704;52.532;6.426;2023-05-22T10:15:12;101433.50;;;23.08;100.00
63006;BME280;53704;52.532;6.426;2023-05-22T10:17:39;101425.66;;;22.93;100.00
63006;BME280;53704;52.532;6.426;2023-05-22T10:20:07;101421.59;;;22.96;100.00
63006;BME280;53704;52.532;6.426;2023-05-22T10:22:37;101421.25;;;23.23;100.00
63006;BME280;53704;52.532;6.426;2023-05-22T10:25:04;101421.59;;;23.15;100.00
63006;BME280;53704;52.532;6.426;2023-05-22T10:27:30;101416.22;;;23.20;100.00
63006;BME280;53704;52.532;6.426;2023-05-22T10:30:57;101418.56;;;23.46;100.00
63006;BME280;53704;52.532;6.426;2023-05-22T10:35:49;101416.22;;;23.62;100.00
63006;BME280;53704;52.532;6.426;2023-05-22T10:40:55;101406.06;;;24.45;100.00
63006;BME280;53704;52.532;6.426;2023-05-22T10:43:22;101403.44;;;24.38;100.00
63006;BME280;53704;52.532;6.426;2023-05-22T10:45:48;101409.50;;;24.52;100.00
63006;BME280;53704;52.532;6.426;2023-05-22T10:48:20;101399.31;;;24.93;100.00
63006;BME280;53704;52.532;6.426;2023-05-22T10:50:50;101387.97;;;24.90;100.00
63006;BME280;53704;52.532;6.426;2023-05-22T10:53:21;101390.28;;;24.29;100.00
63006;BME280;53704;52.532;6.426;2023-05-22T10:55:56;101399.16;;;24.83;100.00
63006;BME280;53704;52.532;6.426;2023-05-22T10:58:28;101398.09;;;25.01;100.00
63006;BME280;53704;52.532;6.426;2023-05-22T11:01:13;101392.16;;;24.64;100.00
63006;BME280;53704;52.532;6.426;2023-05-22T11:04:11;101397.41;;;25.23;100.00
63006;BME280;53704;52.532;6.426;2023-05-22T11:06:42;101391.25;;;25.33;100.00
63006;BME280;53704;52.532;6.426;2023-05-22T11:09:29;101392.72;;;26.25;100.00
63006;BME280;53704;52.532;6.426;2023-05-22T11:14:50;101399.44;;;25.61;100.00
63006;BME280;53704;52.532;6.426;2023-05-22T11:17:29;101392.06;;;26.62;100.00
63006;BME280;53704;52.532;6.426;2023-05-22T11:20:00;101386.09;;;26.70;100.00
63006;BME280;53704;52.532;6.426;2023-05-22T11:24:55;101386.94;;;26.49;100.00
63006;BME280;53704;52.532;6.426;2023-05-22T11:27:20;101384.84;;;27.70;100.00
63006;BME280;53704;52.532;6.426;2023-05-22T11:29:47;101391.16;;;27.60;100.00
63006;BME280;53704;52.532;6.426;2023-05-22T11:32:13;101387.72;;;26.22;94.04
63006;BME280;53704;52.532;6.426;2023-05-22T11:34:45;101384.78;;;27.60;99.14
63006;BME280;53704;52.532;6.426;2023-05-22T11:37:11;101382.47;;;27.89;87.60
63006;BME280;53704;52.532;6.426;2023-05-22T11:39:36;101374.94;;;27.10;98.33
63006;BME280;53704;52.532;6.426;2023-05-22T11:42:02;101373.25;;;28.16;93.81
63006;BME280;53704;52.532;6.426;2023-05-22T11:44:29;101383.88;;;27.87;95.47
63006;BME280;53704;52.532;6.426;2023-05-22T11:46:54;101378.69;;;27.58;93.60
63006;BME280;53704;52.532;6.426;2023-05-22T11:49:21;101375.09;;;27.30;91.15
63006;BME280;53704;52.532;6.426;2023-05-22T11:51:48;101370.31;;;27.90;85.53
63006;BME280;53704;52.532;6.426;2023-05-22T11:54:17;101369.69;;;27.40;82.14
63006;BME280;53704;52.532;6.426;2023-05-22T11:56:44;101354.28;;;28.40;77.11
63006;BME280;53704;52.532;6.426;2023-05-22T11:59:10;101352.34;;;28.46;74.35
63006;BME280;53704;52.532;6.426;2023-05-22T12:01:35;101349.13;;;28.75;73.29
63006;BME280;53704;52.532;6.426;2023-05-22T12:04:01;101338.66;;;29.54;73.75
63006;BME280;53704;52.532;6.426;2023-05-22T12:06:27;101345.59;;;29.56;67.61
63006;BME280;53704;52.532;6.426;2023-05-22T12:08:53;101347.28;;;29.16;74.51
63006;BME280;53704;52.532;6.426;2023-05-22T12:11:24;101339.72;;;28.81;74.00
63006;BME280;53704;52.532;6.426;2023-05-22T12:13:59;101346.50;;;27.47;77.48
63006;BME280;53704;52.532;6.426;2023-05-22T12:16:27;101341.22;;;28.30;76.62
63006;BME280;53704;52.532;6.426;2023-05-22T12:18:55;101339.53;;;29.23;80.84
63006;BME280;53704;52.532;6.426;2023-05-22T12:21:21;101344.53;;;29.37;68.26
63006;BME280;53704;52.532;6.426;2023-05-22T12:23:50;101345.25;;;30.04;73.96
63006;BME280;53704;52.532;6.426;2023-05-22T12:26:16;101347.22;;;28.75;71.03
63006;BME280;53704;52.532;6.426;2023-05-22T12:28:42;101346.72;;;29.61;69.76
63006;BME280;53704;52.532;6.426;2023-05-22T12:31:07;101355.00;;;29.71;68.16
63006;BME280;53704;52.532;6.426;2023-05-22T12:33:33;101346.97;;;29.85;64.13
63006;BME280;53704;52.532;6.426;2023-05-22T12:35:59;101348.66;;;29.39;59.99
63006;BME280;53704;52.532;6.426;2023-05-22T12:38:25;101351.34;;;30.06;64.02
63006;BME280;53704;52.532;6.426;2023-05-22T12:40:51;101343.34;;;29.74;58.33
63006;BME280;53704;52.532;6.426;2023-05-22T12:43:17;101349.78;;;30.50;56.32
63006;BME280;53704;52.532;6.426;2023-05-22T12:45:43;101343.25;;;30.25;55.41
63006;BME280;53704;52.532;6.426;2023-05-22T12:48:11;101345.56;;;28.84;60.28
63006;BME280;53704;52.532;6.426;2023-05-22T12:50:37;101338.75;;;30.40;60.68
63006;BME280;53704;52.532;6.426;2023-05-22T12:53:03;101341.38;;;31.10;57.12
63006;BME280;53704;52.532;6.426;2023-05-22T12:55:28;101346.94;;;30.00;57.31
63006;BME280;53704;52.532;6.426;2023-05-22T12:57:55;101342.66;;;30.28;57.86
63006;BME280;53704;52.532;6.426;2023-05-22T13:00:21;101344.97;;;30.01;59.41
63006;BME280;53704;52.532;6.426;2023-05-22T13:02:47;101345.59;;;29.72;61.32
63006;BME280;53704;52.532;6.426;2023-05-22T13:05:14;101339.78;;;31.33;59.61